x

9415115 - Pittsburg (suisun Bay), Ca (psbc1) Weather Station

6:18am - Tue 27th Sep 2016 All times are PDT. -7 hours from GMT.

  • Wind
    6mph
  • Air Temp 68°f
  • Sea Pressure 1012mb
  • 9415115 - Pittsburg (suisun Bay), Ca
  • 9415115 - Pittsburg (suisun Bay), Ca

More Historic Weather Station data

Upgrade to MSW Pro to gain access to the past 30 days of data for over 8000 Wavebouys and Weather Stations around the globe.

Join Pro

Comparision Forecast

View Surf forecast
   
Tue 09/27 6:18am 6
mph
1012mb 68f
4:12am 10 13 mph 1011.3mb 73f
2:54am 11 14 mph 1011.4mb 73f
2:24am 10 13 mph 1011.5mb 74f
2:18am 10 11 mph 1011.6mb 73f
Mon 09/26 10:18pm 8 15 mph 1012.6mb 83f
7:36pm 5 7 mph 1011.8mb 90f
7:30pm 6 9 mph 1011.8mb 91f
6:42pm 5 8 mph 1011.9mb 88f
6:30pm 7 10 mph 1011.9mb 88f
6:18pm  -  mph 1012mb 83f
6:12pm  -  mph 1012mb 84f
6:00pm 6 10 mph 1012mb 86f
5:48pm 6 7 mph 1012mb 89f
5:36pm 6 7 mph 1012.1mb 92f
5:24pm 6 7 mph 1012.2mb 90f
5:18pm  -  mph 1012.2mb 91f
5:12pm  -  mph 1012.3mb 91f
5:06pm  -  mph 1012.3mb 92f
5:00pm 5 6 mph 1012.4mb 92f
4:30pm 3 5 mph 1012.6mb 93f
4:24pm 5
mph
1012.7mb 93f
3:48pm 5 6 mph 1013mb -
3:42pm 6
mph
1013mb -
3:30pm 1 2 mph - 92f
2:54pm 2
mph
1013.7mb 88f
2:48pm 2
mph
1013.8mb 88f
2:30pm 2
mph
1013.9mb 87f
2:24pm 1 2 mph 1014mb 86f
9:48am 2 3 mph 1016.4mb 70f
8:24am 2 3 mph 1016mb 66f
8:18am 2 3 mph 1015.9mb 66f
8:12am 1 3 mph 1016mb 67f
8:06am 1 2 mph 1015.9mb 69f
7:54am  -  1 mph 1015.9mb 67f
7:48am  -  1 mph 1015.9mb 67f
7:36am 2
mph
1015.8mb 66f
7:24am 1 2 mph 1015.7mb 69f
7:18am  -  1 mph 1015.7mb 67f
7:06am  -  mph 1015.6mb 67f
7:00am  -  1 mph 1015.6mb 67f
6:48am  -  mph 1015.5mb 67f
6:42am 1 2 mph 1015.4mb 66f
6:30am 1 2 mph 1015.2mb 65f
6:24am  -  1 mph 1015.2mb 66f
6:12am 1 2 mph 1015.1mb 66f
6:00am 3
mph
1014.9mb 65f
5:48am 1 3 mph 1014.9mb 66f
5:42am 2 6 mph 1014.8mb 66f
5:30am 5 6 mph 1014.6mb 65f
5:24am 5 7 mph 1014.6mb 66f
5:12am 3 5 mph 1014.4mb 67f
5:06am 2 3 mph 1014.3mb 67f
4:54am 3 5 mph 1014.2mb 65f
4:48am 5
mph
1014.2mb 65f
4:30am 2 5 mph 1014mb 66f
2:24am 3 6 mph 1014.3mb 67f
Sun 09/25 11:48pm 8 10 mph 1013.7mb -
11:00pm 6 11 mph 1013.7mb 82f
10:12pm 7 10 mph 1014.1mb 81f
9:06pm 7 8 mph 1014.5mb 72f
7:42pm 3 5 mph 1014.2mb 79f
7:24pm 3 5 mph 1014.1mb 80f
7:12pm 5 6 mph - 80f
6:54pm 6 8 mph 1014mb 85f
6:42pm 7 8 mph - 85f
6:30pm 6 7 mph 1014.1mb 84f
6:18pm 7 8 mph 1014.2mb 85f
5:24pm 5 6 mph 1014.6mb 87f
4:54pm 5 7 mph 1014.9mb 87f
4:24pm 6 7 mph - 87f
4:18pm 6 7 mph 1015.2mb 87f
4:06pm 7
mph
1015.3mb 86f
4:00pm 6
mph
1015.4mb 87f
3:54pm 6
mph
1015.4mb 87f
3:48pm 6
mph
1015.4mb -
3:42pm 6
mph
1015.5mb -
3:36pm 6 7 mph 1015.5mb -
3:30pm 6 7 mph 1015.6mb 86f
3:18pm 6 7 mph 1015.7mb 85f
3:12pm 6 7 mph 1015.8mb 85f
3:06pm 7
mph
1015.8mb 84f
3:00pm 7 8 mph 1015.8mb 83f
2:36pm 8
mph
1016mb 83f
2:24pm 8 9 mph 1016.1mb 83f
2:18pm 8 9 mph 1016.1mb 82f
2:12pm 8 9 mph 1016.2mb 82f
2:00pm 7 8 mph 1016.4mb 82f
1:54pm 7 8 mph 1016.5mb 82f
1:36pm 9 10 mph 1016.8mb 81f
11:30am 7 8 mph 1018mb 75f
9:54am 7 9 mph 1018.3mb 68f
9:24am 6 7 mph 1018.1mb 67f
8:12am 3 5 mph 1017.5mb 68f
8:06am 2 3 mph 1017.4mb 69f
8:00am 2 3 mph 1017.4mb 69f
7:54am  -  2 mph 1017.4mb 69f
7:48am 1 5 mph 1017.4mb 68f
7:30am 3 5 mph 1017.4mb 68f
7:18am 3 5 mph 1017.2mb 68f
7:06am 5 6 mph 1017.2mb 68f
7:00am 1 3 mph 1017.1mb 68f
6:54am 5 8 mph 1017.2mb 69f
6:48am 5 7 mph 1017.1mb 67f
6:42am 5 6 mph 1017mb 67f
6:30am 5 6 mph 1016.9mb 67f
6:18am 3 6 mph 1016.9mb 66f
6:12am 2 5 mph 1016.9mb 66f
6:06am 3 5 mph 1016.8mb 65f
6:00am 2
mph
1016.8mb 66f
5:54am 3 5 mph 1016.7mb 67f
5:48am 2 3 mph 1016.7mb 66f
5:42am 2 3 mph 1016.6mb 67f
5:36am 2 5 mph 1016.6mb 67f
5:30am 2 6 mph 1016.6mb 67f
5:18am 2 3 mph 1016.5mb 67f
5:06am  -  2 mph 1016.5mb 68f
3:12am 6 8 mph 1016.9mb 71f
Sat 09/24 7:42pm 8 10 mph 1016.3mb 80f
7:24pm 9 10 mph 1016.3mb 81f
5:06pm 2 3 mph 1016.3mb 84f
4:30pm 2 5 mph 1016.5mb 84f
4:24pm 3 5 mph 1016.6mb 84f
4:12pm 5 6 mph 1016.6mb 85f
8:12am 8 10 mph 1019.4mb 67f
8:06am 8 10 mph 1019.3mb 66f
8:00am 9 11 mph 1019.3mb 66f
7:48am 8 11 mph 1019.3mb 66f
7:36am 8 10 mph 1019.3mb 65f
7:30am 7 9 mph 1019.2mb 65f
7:24am 7 8 mph 1019.1mb 65f
7:18am 6 7 mph 1019mb 65f
7:12am 3 5 mph 1018.9mb 65f
7:06am 3
mph
1018.8mb 65f
7:00am 1 2 mph 1018.6mb 65f
6:54am 2
mph
1018.6mb 66f
6:48am 2 3 mph 1018.6mb 65f
6:30am 5 8 mph 1018.7mb 66f
6:24am 6 9 mph 1018.7mb 66f
6:12am 6 8 mph 1018.8mb 66f
6:06am 6 13 mph 1018.8mb 66f
6:00am 10 14 mph 1018.8mb 65f
5:54am 9 11 mph 1018.9mb 65f
5:48am 9 11 mph 1018.8mb 65f
5:42am 10 11 mph 1018.8mb 66f
5:36am 9 13 mph 1018.8mb 66f
5:24am 10 13 mph 1018.8mb 66f
5:18am 9 11 mph 1018.7mb 65f
5:12am 11 13 mph 1018.6mb 65f
5:06am 11 14 mph 1018.5mb 66f
4:54am 8 11 mph 1018.6mb 66f
4:36am 9 11 mph 1018.3mb 66f
4:24am 9 13 mph 1018.4mb 66f
4:12am 9 11 mph 1018.3mb 67f
4:06am 9 11 mph 1018.3mb 67f
4:00am 8 10 mph 1018.3mb 66f
3:54am 7 10 mph 1018.4mb 66f
3:18am 8 14 mph 1018.5mb 68f
Fri 09/23 3:42pm 9 11 mph 1018.1mb -
3:06pm 9 11 mph 1018.3mb 75f
2:48pm 9 13 mph 1018.7mb 74f
2:24pm 9 11 mph 1018.9mb 73f